sensor_id;sensor_type;location;lat;lon;timestamp;temperature;humidity
55329;DHT22;41205;44.264;19.884;2022-08-19T00:00:45;640.30;1817.60
55329;DHT22;41205;44.264;19.884;2022-08-19T00:03:10;640.30;1843.20
55329;DHT22;41205;44.264;19.884;2022-08-19T00:05:36;640.30;1843.20
55329;DHT22;41205;44.264;19.884;2022-08-19T00:08:02;640.30;1843.20
55329;DHT22;41205;44.264;19.884;2022-08-19T00:10:28;640.30;1868.80
55329;DHT22;41205;44.264;19.884;2022-08-19T00:12:53;640.20;1868.80
55329;DHT22;41205;44.264;19.884;2022-08-19T00:15:20;640.20;1843.20
55329;DHT22;41205;44.264;19.884;2022-08-19T00:17:46;640.10;1868.80
55329;DHT22;41205;44.264;19.884;2022-08-19T00:20:12;640.00;1868.80
55329;DHT22;41205;44.264;19.884;2022-08-19T00:22:38;640.00;1868.80
55329;DHT22;41205;44.264;19.884;2022-08-19T00:25:06;640.10;1843.20
55329;DHT22;41205;44.264;19.884;2022-08-19T00:27:32;640.00;1868.80
55329;DHT22;41205;44.264;19.884;2022-08-19T00:29:57;640.10;1868.80
55329;DHT22;41205;44.264;19.884;2022-08-19T00:32:24;615.30;1920.00
55329;DHT22;41205;44.264;19.884;2022-08-19T00:34:50;640.00;1868.80
55329;DHT22;41205;44.264;19.884;2022-08-19T00:37:18;640.00;1868.80
55329;DHT22;41205;44.264;19.884;2022-08-19T00:39:44;615.30;1894.40
55329;DHT22;41205;44.264;19.884;2022-08-19T00:42:10;615.30;1894.40
55329;DHT22;41205;44.264;19.884;2022-08-19T00:44:35;615.20;1920.00
55329;DHT22;41205;44.264;19.884;2022-08-19T00:47:01;615.00;1945.60
55329;DHT22;41205;44.264;19.884;2022-08-19T00:52:23;614.80;1971.20
55329;DHT22;41205;44.264;19.884;2022-08-19T00:54:49;614.80;1971.20
55329;DHT22;41205;44.264;19.884;2022-08-19T00:57:17;614.80;1971.20
55329;DHT22;41205;44.264;19.884;2022-08-19T00:59:44;614.80;1971.20
55329;DHT22;41205;44.264;19.884;2022-08-19T01:02:11;614.90;1971.20
55329;DHT22;41205;44.264;19.884;2022-08-19T01:04:37;614.90;1945.60
55329;DHT22;41205;44.264;19.884;2022-08-19T01:07:03;614.90;1945.60
55329;DHT22;41205;44.264;19.884;2022-08-19T01:09:29;614.90;1945.60
55329;DHT22;41205;44.264;19.884;2022-08-19T01:11:54;614.90;1971.20
55329;DHT22;41205;44.264;19.884;2022-08-19T01:14:21;614.90;1971.20
55329;DHT22;41205;44.264;19.884;2022-08-19T01:16:47;614.80;1971.20
55329;DHT22;41205;44.264;19.884;2022-08-19T01:19:17;614.80;1996.80
55329;DHT22;41205;44.264;19.884;2022-08-19T01:21:45;614.80;1996.80
55329;DHT22;41205;44.264;19.884;2022-08-19T01:24:13;614.80;1996.80
55329;DHT22;41205;44.264;19.884;2022-08-19T01:26:39;614.80;1996.80
55329;DHT22;41205;44.264;19.884;2022-08-19T01:29:07;614.80;1996.80
55329;DHT22;41205;44.264;19.884;2022-08-19T01:31:33;614.80;1996.80
55329;DHT22;41205;44.264;19.884;2022-08-19T01:33:59;614.80;1996.80
55329;DHT22;41205;44.264;19.884;2022-08-19T01:36:30;614.80;2022.40
55329;DHT22;41205;44.264;19.884;2022-08-19T01:38:57;614.80;2022.40
55329;DHT22;41205;44.264;19.884;2022-08-19T01:41:23;614.80;2022.40
55329;DHT22;41205;44.264;19.884;2022-08-19T01:43:49;614.80;2048.00
55329;DHT22;41205;44.264;19.884;2022-08-19T01:46:15;614.80;2022.40
55329;DHT22;41205;44.264;19.884;2022-08-19T01:48:42;614.80;2048.00
55329;DHT22;41205;44.264;19.884;2022-08-19T01:51:08;614.80;2048.00
55329;DHT22;41205;44.264;19.884;2022-08-19T01:53:34;614.80;2048.00
55329;DHT22;41205;44.264;19.884;2022-08-19T01:56:00;614.80;2073.60
55329;DHT22;41205;44.264;19.884;2022-08-19T01:58:27;614.80;2099.20
55329;DHT22;41205;44.264;19.884;2022-08-19T02:00:55;614.70;2150.40
55329;DHT22;41205;44.264;19.884;2022-08-19T02:03:21;614.70;2150.40
55329;DHT22;41205;44.264;19.884;2022-08-19T02:05:48;614.60;2176.00
55329;DHT22;41205;44.264;19.884;2022-08-19T02:08:18;614.50;2227.20
55329;DHT22;41205;44.264;19.884;2022-08-19T02:10:44;589.70;2329.60
55329;DHT22;41205;44.264;19.884;2022-08-19T02:13:10;589.70;2329.60
55329;DHT22;41205;44.264;19.884;2022-08-19T02:15:36;589.70;2304.00
55329;DHT22;41205;44.264;19.884;2022-08-19T02:18:01;589.70;2304.00
55329;DHT22;41205;44.264;19.884;2022-08-19T02:20:27;589.70;2355.20
55329;DHT22;41205;44.264;19.884;2022-08-19T02:22:52;614.40;2304.00
55329;DHT22;41205;44.264;19.884;2022-08-19T02:25:18;589.70;2380.80
55329;DHT22;41205;44.264;19.884;2022-08-19T02:27:43;589.70;2406.40
55329;DHT22;41205;44.264;19.884;2022-08-19T02:30:11;589.70;2432.00
55329;DHT22;41205;44.264;19.884;2022-08-19T02:32:37;589.60;2432.00
55329;DHT22;41205;44.264;19.884;2022-08-19T02:35:02;589.50;2432.00
55329;DHT22;41205;44.264;19.884;2022-08-19T02:37:28;589.30;2432.00
55329;DHT22;41205;44.264;19.884;2022-08-19T02:40:12;589.40;2432.00
55329;DHT22;41205;44.264;19.884;2022-08-19T02:42:38;589.40;2432.00
55329;DHT22;41205;44.264;19.884;2022-08-19T02:45:04;589.50;2432.00
55329;DHT22;41205;44.264;19.884;2022-08-19T02:47:30;589.70;2432.00
55329;DHT22;41205;44.264;19.884;2022-08-19T02:49:55;589.70;2432.00
55329;DHT22;41205;44.264;19.884;2022-08-19T02:52:21;589.70;2432.00
55329;DHT22;41205;44.264;19.884;2022-08-19T02:54:48;589.70;2432.00
55329;DHT22;41205;44.264;19.884;2022-08-19T02:57:14;589.70;2432.00
55329;DHT22;41205;44.264;19.884;2022-08-19T02:59:39;589.50;2432.00
55329;DHT22;41205;44.264;19.884;2022-08-19T03:02:05;589.40;2432.00
55329;DHT22;41205;44.264;19.884;2022-08-19T03:04:30;589.30;2432.00
55329;DHT22;41205;44.264;19.884;2022-08-19T03:06:56;589.40;2432.00
55329;DHT22;41205;44.264;19.884;2022-08-19T03:09:22;589.40;2432.00
55329;DHT22;41205;44.264;19.884;2022-08-19T03:11:48;589.40;2432.00
55329;DHT22;41205;44.264;19.884;2022-08-19T03:14:13;589.40;2432.00
55329;DHT22;41205;44.264;19.884;2022-08-19T03:16:44;589.20;2432.00
55329;DHT22;41205;44.264;19.884;2022-08-19T03:19:10;589.20;2432.00
55329;DHT22;41205;44.264;19.884;2022-08-19T03:21:35;589.20;2432.00
55329;DHT22;41205;44.264;19.884;2022-08-19T03:24:02;589.20;2432.00
55329;DHT22;41205;44.264;19.884;2022-08-19T03:26:28;589.20;2432.00
55329;DHT22;41205;44.264;19.884;2022-08-19T03:28:54;589.20;2432.00
55329;DHT22;41205;44.264;19.884;2022-08-19T03:31:21;589.20;2432.00
55329;DHT22;41205;44.264;19.884;2022-08-19T03:33:50;589.10;2432.00
55329;DHT22;41205;44.264;19.884;2022-08-19T03:36:17;589.10;2432.00
55329;DHT22;41205;44.264;19.884;2022-08-19T03:38:44;589.20;2432.00
55329;DHT22;41205;44.264;19.884;2022-08-19T03:41:11;589.20;2432.00
55329;DHT22;41205;44.264;19.884;2022-08-19T03:43:39;589.20;2432.00
55329;DHT22;41205;44.264;19.884;2022-08-19T03:46:06;589.10;2432.00
55329;DHT22;41205;44.264;19.884;2022-08-19T03:48:33;589.20;2432.00
55329;DHT22;41205;44.264;19.884;2022-08-19T03:50:59;589.20;2432.00
55329;DHT22;41205;44.264;19.884;2022-08-19T03:53:25;589.20;2432.00
55329;DHT22;41205;44.264;19.884;2022-08-19T03:55:51;589.10;2432.00
55329;DHT22;41205;44.264;19.884;2022-08-19T03:58:18;589.10;2432.00
55329;DHT22;41205;44.264;19.884;2022-08-19T04:00:44;589.10;2432.00
55329;DHT22;41205;44.264;19.884;2022-08-19T04:03:10;589.10;2432.00
55329;DHT22;41205;44.264;19.884;2022-08-19T04:05:35;589.20;2432.00
55329;DHT22;41205;44.264;19.884;2022-08-19T04:08:03;589.10;2432.00
55329;DHT22;41205;44.264;19.884;2022-08-19T04:10:29;589.30;2432.00
55329;DHT22;41205;44.264;19.884;2022-08-19T04:12:54;589.30;2432.00
55329;DHT22;41205;44.264;19.884;2022-08-19T04:15:20;589.50;2432.00
55329;DHT22;41205;44.264;19.884;2022-08-19T04:17:46;589.50;2432.00
55329;DHT22;41205;44.264;19.884;2022-08-19T04:20:11;589.60;2432.00
55329;DHT22;41205;44.264;19.884;2022-08-19T04:22:37;589.70;2432.00
55329;DHT22;41205;44.264;19.884;2022-08-19T04:25:02;614.40;2432.00
55329;DHT22;41205;44.264;19.884;2022-08-19T04:27:28;614.60;2432.00
55329;DHT22;41205;44.264;19.884;2022-08-19T04:29:54;614.80;2432.00
55329;DHT22;41205;44.264;19.884;2022-08-19T04:32:20;614.80;2432.00
55329;DHT22;41205;44.264;19.884;2022-08-19T04:34:46;614.90;2432.00
55329;DHT22;41205;44.264;19.884;2022-08-19T04:37:11;615.00;2432.00
55329;DHT22;41205;44.264;19.884;2022-08-19T04:39:38;615.10;2432.00
55329;DHT22;41205;44.264;19.884;2022-08-19T04:42:23;615.10;2432.00
55329;DHT22;41205;44.264;19.884;2022-08-19T04:45:07;615.20;2432.00
55329;DHT22;41205;44.264;19.884;2022-08-19T04:47:36;640.00;2432.00
55329;DHT22;41205;44.264;19.884;2022-08-19T04:50:02;640.00;2432.00
55329;DHT22;41205;44.264;19.884;2022-08-19T04:52:28;640.50;2432.00
55329;DHT22;41205;44.264;19.884;2022-08-19T04:54:56;640.90;2380.80
55329;DHT22;41205;44.264;19.884;2022-08-19T04:57:22;666.00;2329.60
55329;DHT22;41205;44.264;19.884;2022-08-19T04:59:48;666.50;2252.80
55329;DHT22;41205;44.264;19.884;2022-08-19T05:02:13;691.30;2227.20
55329;DHT22;41205;44.264;19.884;2022-08-19T05:04:39;691.30;2252.80
55329;DHT22;41205;44.264;19.884;2022-08-19T05:07:05;691.50;2201.60
55329;DHT22;41205;44.264;19.884;2022-08-19T05:09:31;691.90;2150.40
55329;DHT22;41205;44.264;19.884;2022-08-19T05:11:56;717.10;2099.20
55329;DHT22;41205;44.264;19.884;2022-08-19T05:14:22;717.60;2048.00
55329;DHT22;41205;44.264;19.884;2022-08-19T05:16:48;743.00;1945.60
55329;DHT22;41205;44.264;19.884;2022-08-19T05:19:13;743.30;1920.00
55329;DHT22;41205;44.264;19.884;2022-08-19T05:21:58;768.30;1868.80
55329;DHT22;41205;44.264;19.884;2022-08-19T05:24:43;768.90;1843.20
55329;DHT22;41205;44.264;19.884;2022-08-19T05:27:08;794.00;1792.00
55329;DHT22;41205;44.264;19.884;2022-08-19T05:29:34;794.50;1766.40
55329;DHT22;41205;44.264;19.884;2022-08-19T05:32:00;819.20;1715.20
55329;DHT22;41205;44.264;19.884;2022-08-19T05:34:26;819.30;1715.20
55329;DHT22;41205;44.264;19.884;2022-08-19T05:36:53;794.20;1740.80
55329;DHT22;41205;44.264;19.884;2022-08-19T05:39:21;819.40;1689.60
55329;DHT22;41205;44.264;19.884;2022-08-19T05:41:49;819.40;1689.60
55329;DHT22;41205;44.264;19.884;2022-08-19T05:44:14;819.70;1664.00
55329;DHT22;41205;44.264;19.884;2022-08-19T05:46:42;844.90;1664.00
55329;DHT22;41205;44.264;19.884;2022-08-19T05:49:08;845.20;1612.80
55329;DHT22;41205;44.264;19.884;2022-08-19T05:51:35;845.20;1612.80
55329;DHT22;41205;44.264;19.884;2022-08-19T05:54:01;845.40;1587.20
55329;DHT22;41205;44.264;19.884;2022-08-19T05:56:26;870.50;1561.60
55329;DHT22;41205;44.264;19.884;2022-08-19T05:58:52;845.70;1536.00
55329;DHT22;41205;44.264;19.884;2022-08-19T06:01:20;845.50;1561.60
55329;DHT22;41205;44.264;19.884;2022-08-19T06:03:45;845.70;1561.60
55329;DHT22;41205;44.264;19.884;2022-08-19T06:06:13;870.70;1484.80
55329;DHT22;41205;44.264;19.884;2022-08-19T06:08:39;870.90;1484.80
55329;DHT22;41205;44.264;19.884;2022-08-19T06:11:24;896.30;1433.60
55329;DHT22;41205;44.264;19.884;2022-08-19T06:13:51;896.10;1433.60
55329;DHT22;41205;44.264;19.884;2022-08-19T06:16:21;896.80;1408.00
55329;DHT22;41205;44.264;19.884;2022-08-19T06:18:51;921.80;1382.40
55329;DHT22;41205;44.264;19.884;2022-08-19T06:21:21;921.80;1382.40
55329;DHT22;41205;44.264;19.884;2022-08-19T06:23:46;922.50;1356.80
55329;DHT22;41205;44.264;19.884;2022-08-19T06:26:13;948.10;1305.60
55329;DHT22;41205;44.264;19.884;2022-08-19T06:28:39;973.10;1280.00
55329;DHT22;41205;44.264;19.884;2022-08-19T06:31:08;948.10;1254.40
55329;DHT22;41205;44.264;19.884;2022-08-19T06:33:34;947.60;1280.00
55329;DHT22;41205;44.264;19.884;2022-08-19T06:36:00;947.20;1305.60
55329;DHT22;41205;44.264;19.884;2022-08-19T06:38:25;947.20;1305.60
55329;DHT22;41205;44.264;19.884;2022-08-19T06:40:51;947.20;1280.00
55329;DHT22;41205;44.264;19.884;2022-08-19T06:43:24;973.40;1228.80
55329;DHT22;41205;44.264;19.884;2022-08-19T06:45:50;973.60;1203.20
55329;DHT22;41205;44.264;19.884;2022-08-19T06:48:17;973.30;1177.60
55329;DHT22;41205;44.264;19.884;2022-08-19T06:50:43;998.70;1203.20
55329;DHT22;41205;44.264;19.884;2022-08-19T06:53:09;973.60;1203.20
55329;DHT22;41205;44.264;19.884;2022-08-19T06:55:34;998.90;1203.20
55329;DHT22;41205;44.264;19.884;2022-08-19T06:58:03;1024.00;1177.60
55329;DHT22;41205;44.264;19.884;2022-08-19T07:00:29;1024.70;1152.00
55329;DHT22;41205;44.264;19.884;2022-08-19T07:02:54;1049.70;1152.00
55329;DHT22;41205;44.264;19.884;2022-08-19T07:05:20;999.30;1152.00
55329;DHT22;41205;44.264;19.884;2022-08-19T07:07:46;998.60;1203.20
55329;DHT22;41205;44.264;19.884;2022-08-19T07:10:11;998.40;1228.80
55329;DHT22;41205;44.264;19.884;2022-08-19T07:12:37;1024.30;1152.00
55329;DHT22;41205;44.264;19.884;2022-08-19T07:15:04;999.00;1177.60
55329;DHT22;41205;44.264;19.884;2022-08-19T07:17:29;999.00;1177.60
55329;DHT22;41205;44.264;19.884;2022-08-19T07:19:55;973.70;1177.60
55329;DHT22;41205;44.264;19.884;2022-08-19T07:22:21;998.50;1177.60
55329;DHT22;41205;44.264;19.884;2022-08-19T07:24:47;998.90;1177.60
55329;DHT22;41205;44.264;19.884;2022-08-19T07:27:14;998.60;1203.20
55329;DHT22;41205;44.264;19.884;2022-08-19T07:29:39;1024.20;1177.60
55329;DHT22;41205;44.264;19.884;2022-08-19T07:32:06;1024.70;1126.40
55329;DHT22;41205;44.264;19.884;2022-08-19T07:34:32;1050.00;1152.00
55329;DHT22;41205;44.264;19.884;2022-08-19T07:37:01;1050.00;1126.40
55329;DHT22;41205;44.264;19.884;2022-08-19T07:39:29;1050.10;1126.40
55329;DHT22;41205;44.264;19.884;2022-08-19T07:41:55;1050.30;1126.40
55329;DHT22;41205;44.264;19.884;2022-08-19T07:44:21;1024.60;1152.00
55329;DHT22;41205;44.264;19.884;2022-08-19T07:46:48;1049.70;1152.00
55329;DHT22;41205;44.264;19.884;2022-08-19T07:49:15;1024.40;1152.00
55329;DHT22;41205;44.264;19.884;2022-08-19T07:51:45;999.30;1152.00
55329;DHT22;41205;44.264;19.884;2022-08-19T07:54:11;999.20;1152.00
55329;DHT22;41205;44.264;19.884;2022-08-19T07:56:36;1024.20;1152.00
55329;DHT22;41205;44.264;19.884;2022-08-19T07:59:02;1050.00;1126.40
55329;DHT22;41205;44.264;19.884;2022-08-19T08:01:28;1075.40;1100.80
55329;DHT22;41205;44.264;19.884;2022-08-19T08:03:55;1075.40;1100.80
55329;DHT22;41205;44.264;19.884;2022-08-19T08:06:39;1075.70;1075.20
55329;DHT22;41205;44.264;19.884;2022-08-19T08:09:33;1075.80;1075.20
55329;DHT22;41205;44.264;19.884;2022-08-19T08:12:00;1101.20;1075.20
55329;DHT22;41205;44.264;19.884;2022-08-19T08:14:30;1101.60;1049.60
55329;DHT22;41205;44.264;19.884;2022-08-19T08:16:57;1075.90;1075.20
55329;DHT22;41205;44.264;19.884;2022-08-19T08:19:24;1075.80;1075.20
55329;DHT22;41205;44.264;19.884;2022-08-19T08:21:51;1075.60;1100.80
55329;DHT22;41205;44.264;19.884;2022-08-19T08:24:17;1075.90;1075.20
55329;DHT22;41205;44.264;19.884;2022-08-19T08:26:43;1075.80;1100.80
55329;DHT22;41205;44.264;19.884;2022-08-19T08:29:09;1075.50;1126.40
55329;DHT22;41205;44.264;19.884;2022-08-19T08:31:35;1101.30;1075.20
55329;DHT22;41205;44.264;19.884;2022-08-19T08:34:02;1101.00;1100.80
55329;DHT22;41205;44.264;19.884;2022-08-19T08:36:27;1101.10;1100.80
55329;DHT22;41205;44.264;19.884;2022-08-19T08:38:53;1075.90;1100.80
55329;DHT22;41205;44.264;19.884;2022-08-19T08:41:31;1050.50;1126.40
55329;DHT22;41205;44.264;19.884;2022-08-19T08:43:58;1049.80;1177.60
55329;DHT22;41205;44.264;19.884;2022-08-19T08:46:27;998.60;1280.00
55329;DHT22;41205;44.264;19.884;2022-08-19T08:48:56;998.40;1280.00
55329;DHT22;41205;44.264;19.884;2022-08-19T08:51:32;973.70;1254.40
55329;DHT22;41205;44.264;19.884;2022-08-19T08:53:59;998.60;1254.40
55329;DHT22;41205;44.264;19.884;2022-08-19T08:56:25;973.70;1254.40
55329;DHT22;41205;44.264;19.884;2022-08-19T09:01:19;973.30;1280.00
55329;DHT22;41205;44.264;19.884;2022-08-19T09:03:45;973.40;1280.00
55329;DHT22;41205;44.264;19.884;2022-08-19T09:11:04;998.60;1280.00
55329;DHT22;41205;44.264;19.884;2022-08-19T09:16:17;973.30;1280.00
55329;DHT22;41205;44.264;19.884;2022-08-19T09:18:47;973.10;1305.60
55329;DHT22;41205;44.264;19.884;2022-08-19T09:21:14;972.90;1305.60
55329;DHT22;41205;44.264;19.884;2022-08-19T09:23:40;973.00;1280.00
55329;DHT22;41205;44.264;19.884;2022-08-19T09:26:07;973.20;1280.00
55329;DHT22;41205;44.264;19.884;2022-08-19T09:28:33;973.20;1254.40
55329;DHT22;41205;44.264;19.884;2022-08-19T09:30:58;973.40;1254.40
55329;DHT22;41205;44.264;19.884;2022-08-19T09:33:24;973.40;1254.40
55329;DHT22;41205;44.264;19.884;2022-08-19T09:35:49;973.70;1254.40
55329;DHT22;41205;44.264;19.884;2022-08-19T09:38:15;973.50;1228.80
55329;DHT22;41205;44.264;19.884;2022-08-19T09:40:40;973.20;1177.60
55329;DHT22;41205;44.264;19.884;2022-08-19T09:43:06;973.30;1203.20
55329;DHT22;41205;44.264;19.884;2022-08-19T09:45:32;973.30;1228.80
55329;DHT22;41205;44.264;19.884;2022-08-19T09:47:58;973.60;1228.80
55329;DHT22;41205;44.264;19.884;2022-08-19T09:50:23;973.70;1177.60
55329;DHT22;41205;44.264;19.884;2022-08-19T09:52:49;973.70;1177.60
55329;DHT22;41205;44.264;19.884;2022-08-19T09:55:17;998.70;1177.60
55329;DHT22;41205;44.264;19.884;2022-08-19T09:57:43;998.70;1203.20
55329;DHT22;41205;44.264;19.884;2022-08-19T10:00:08;998.80;1177.60
55329;DHT22;41205;44.264;19.884;2022-08-19T10:02:35;998.80;1152.00
55329;DHT22;41205;44.264;19.884;2022-08-19T10:05:00;998.70;1152.00
55329;DHT22;41205;44.264;19.884;2022-08-19T10:07:45;998.50;1152.00
55329;DHT22;41205;44.264;19.884;2022-08-19T10:10:10;998.70;1152.00
55329;DHT22;41205;44.264;19.884;2022-08-19T10:12:36;998.80;1152.00
55329;DHT22;41205;44.264;19.884;2022-08-19T10:15:02;998.70;1152.00
55329;DHT22;41205;44.264;19.884;2022-08-19T10:17:28;998.50;1152.00
55329;DHT22;41205;44.264;19.884;2022-08-19T10:19:54;998.80;1152.00
55329;DHT22;41205;44.264;19.884;2022-08-19T10:22:19;998.90;1152.00
55329;DHT22;41205;44.264;19.884;2022-08-19T10:24:45;998.80;1126.40
55329;DHT22;41205;44.264;19.884;2022-08-19T10:27:11;998.90;1100.80
55329;DHT22;41205;44.264;19.884;2022-08-19T10:29:38;998.60;1126.40
55329;DHT22;41205;44.264;19.884;2022-08-19T10:32:05;998.90;1126.40
55329;DHT22;41205;44.264;19.884;2022-08-19T10:34:32;998.80;1100.80
55329;DHT22;41205;44.264;19.884;2022-08-19T10:36:58;998.80;1100.80
55329;DHT22;41205;44.264;19.884;2022-08-19T10:39:25;998.80;1100.80
55329;DHT22;41205;44.264;19.884;2022-08-19T10:41:53;998.80;1100.80
55329;DHT22;41205;44.264;19.884;2022-08-19T10:44:21;998.60;1075.20
55329;DHT22;41205;44.264;19.884;2022-08-19T10:46:48;998.60;1075.20
55329;DHT22;41205;44.264;19.884;2022-08-19T10:49:13;998.80;1075.20
55329;DHT22;41205;44.264;19.884;2022-08-19T10:51:39;998.90;1075.20
55329;DHT22;41205;44.264;19.884;2022-08-19T10:54:24;998.80;1075.20
55329;DHT22;41205;44.264;19.884;2022-08-19T10:57:09;998.80;1075.20
55329;DHT22;41205;44.264;19.884;2022-08-19T10:59:35;998.80;1075.20
55329;DHT22;41205;44.264;19.884;2022-08-19T11:02:01;998.80;1049.60
55329;DHT22;41205;44.264;19.884;2022-08-19T11:04:27;998.90;1049.60
55329;DHT22;41205;44.264;19.884;2022-08-19T11:06:53;999.00;1049.60
55329;DHT22;41205;44.264;19.884;2022-08-19T11:09:22;998.90;1049.60
55329;DHT22;41205;44.264;19.884;2022-08-19T11:11:51;998.80;1049.60
55329;DHT22;41205;44.264;19.884;2022-08-19T11:14:18;998.90;1049.60
55329;DHT22;41205;44.264;19.884;2022-08-19T11:16:46;999.00;1049.60
55329;DHT22;41205;44.264;19.884;2022-08-19T11:19:12;998.80;1049.60
55329;DHT22;41205;44.264;19.884;2022-08-19T11:21:39;998.80;1024.00
55329;DHT22;41205;44.264;19.884;2022-08-19T11:24:07;998.80;1024.00
55329;DHT22;41205;44.264;19.884;2022-08-19T11:26:33;998.80;1024.00
55329;DHT22;41205;44.264;19.884;2022-08-19T11:29:00;998.80;1049.60
55329;DHT22;41205;44.264;19.884;2022-08-19T11:31:27;999.00;1024.00
55329;DHT22;41205;44.264;19.884;2022-08-19T11:33:53;999.00;1024.00
55329;DHT22;41205;44.264;19.884;2022-08-19T11:36:19;999.00;1024.00
55329;DHT22;41205;44.264;19.884;2022-08-19T11:38:46;998.90;1024.00
55329;DHT22;41205;44.264;19.884;2022-08-19T11:41:14;998.80;1024.00
55329;DHT22;41205;44.264;19.884;2022-08-19T11:43:40;998.90;1024.00
55329;DHT22;41205;44.264;19.884;2022-08-19T11:46:06;999.20;998.40
55329;DHT22;41205;44.264;19.884;2022-08-19T11:48:35;999.20;998.40
55329;DHT22;41205;44.264;19.884;2022-08-19T11:51:03;998.90;998.40
55329;DHT22;41205;44.264;19.884;2022-08-19T11:53:31;998.90;998.40
55329;DHT22;41205;44.264;19.884;2022-08-19T11:55:57;999.20;998.40
55329;DHT22;41205;44.264;19.884;2022-08-19T11:58:23;999.00;998.40
55329;DHT22;41205;44.264;19.884;2022-08-19T12:00:50;999.00;998.40
55329;DHT22;41205;44.264;19.884;2022-08-19T12:03:16;999.20;998.40
55329;DHT22;41205;44.264;19.884;2022-08-19T12:05:41;999.20;998.40
55329;DHT22;41205;44.264;19.884;2022-08-19T12:08:07;999.20;1024.00
55329;DHT22;41205;44.264;19.884;2022-08-19T12:10:33;999.20;1024.00
55329;DHT22;41205;44.264;19.884;2022-08-19T12:12:58;999.30;1024.00
55329;DHT22;41205;44.264;19.884;2022-08-19T12:15:24;999.20;998.40
55329;DHT22;41205;44.264;19.884;2022-08-19T12:17:50;999.20;998.40
55329;DHT22;41205;44.264;19.884;2022-08-19T12:20:15;999.20;1024.00
55329;DHT22;41205;44.264;19.884;2022-08-19T12:22:43;999.20;998.40
55329;DHT22;41205;44.264;19.884;2022-08-19T12:25:09;999.00;998.40
55329;DHT22;41205;44.264;19.884;2022-08-19T12:27:35;998.90;998.40
55329;DHT22;41205;44.264;19.884;2022-08-19T12:30:02;998.80;1024.00
55329;DHT22;41205;44.264;19.884;2022-08-19T12:32:28;998.80;1075.20
55329;DHT22;41205;44.264;19.884;2022-08-19T12:34:53;998.90;1075.20
55329;DHT22;41205;44.264;19.884;2022-08-19T12:37:19;998.80;1075.20
55329;DHT22;41205;44.264;19.884;2022-08-19T12:39:45;998.70;1100.80
55329;DHT22;41205;44.264;19.884;2022-08-19T12:42:12;998.50;1100.80
55329;DHT22;41205;44.264;19.884;2022-08-19T12:44:38;998.40;1126.40
55329;DHT22;41205;44.264;19.884;2022-08-19T12:47:05;973.70;1100.80
55329;DHT22;41205;44.264;19.884;2022-08-19T12:49:31;973.70;1100.80
55329;DHT22;41205;44.264;19.884;2022-08-19T12:52:01;973.70;1100.80
55329;DHT22;41205;44.264;19.884;2022-08-19T12:54:26;973.70;1100.80
55329;DHT22;41205;44.264;19.884;2022-08-19T12:56:52;973.60;1126.40
55329;DHT22;41205;44.264;19.884;2022-08-19T12:59:17;973.40;1126.40
55329;DHT22;41205;44.264;19.884;2022-08-19T13:01:44;973.10;1177.60
55329;DHT22;41205;44.264;19.884;2022-08-19T13:04:09;948.10;1152.00
55329;DHT22;41205;44.264;19.884;2022-08-19T13:06:35;948.00;1203.20
55329;DHT22;41205;44.264;19.884;2022-08-19T13:09:01;947.60;1203.20
55329;DHT22;41205;44.264;19.884;2022-08-19T13:11:27;947.40;1228.80
55329;DHT22;41205;44.264;19.884;2022-08-19T13:13:57;947.20;1228.80
55329;DHT22;41205;44.264;19.884;2022-08-19T13:16:23;922.30;1254.40
55329;DHT22;41205;44.264;19.884;2022-08-19T13:18:49;922.20;1254.40
55329;DHT22;41205;44.264;19.884;2022-08-19T13:21:18;922.00;1254.40
55329;DHT22;41205;44.264;19.884;2022-08-19T13:23:45;921.80;1254.40
55329;DHT22;41205;44.264;19.884;2022-08-19T13:26:11;921.60;1254.40
55329;DHT22;41205;44.264;19.884;2022-08-19T13:28:38;896.80;1228.80
55329;DHT22;41205;44.264;19.884;2022-08-19T13:31:23;896.50;1280.00
55329;DHT22;41205;44.264;19.884;2022-08-19T13:34:08;896.10;1280.00
55329;DHT22;41205;44.264;19.884;2022-08-19T13:36:34;871.30;1331.20
55329;DHT22;41205;44.264;19.884;2022-08-19T13:38:59;870.90;1356.80
55329;DHT22;41205;44.264;19.884;2022-08-19T13:41:25;870.70;1459.20
55329;DHT22;41205;44.264;19.884;2022-08-19T13:43:52;845.40;1587.20
55329;DHT22;41205;44.264;19.884;2022-08-19T13:46:17;820.10;1638.40
55329;DHT22;41205;44.264;19.884;2022-08-19T13:48:45;819.60;1715.20
55329;DHT22;41205;44.264;19.884;2022-08-19T13:51:10;819.30;1715.20
55329;DHT22;41205;44.264;19.884;2022-08-19T13:53:37;819.20;1740.80
55329;DHT22;41205;44.264;19.884;2022-08-19T13:56:08;819.20;1740.80
55329;DHT22;41205;44.264;19.884;2022-08-19T13:58:35;794.50;1766.40
55329;DHT22;41205;44.264;19.884;2022-08-19T14:01:01;794.10;1817.60
55329;DHT22;41205;44.264;19.884;2022-08-19T14:03:26;793.90;1817.60
55329;DHT22;41205;44.264;19.884;2022-08-19T14:05:52;793.70;1868.80
55329;DHT22;41205;44.264;19.884;2022-08-19T14:08:18;768.90;1843.20
55329;DHT22;41205;44.264;19.884;2022-08-19T14:10:44;768.60;1920.00
55329;DHT22;41205;44.264;19.884;2022-08-19T14:13:12;768.40;1945.60
55329;DHT22;41205;44.264;19.884;2022-08-19T14:15:38;768.10;1996.80
55329;DHT22;41205;44.264;19.884;2022-08-19T14:18:03;743.30;2048.00
55329;DHT22;41205;44.264;19.884;2022-08-19T14:20:29;743.20;2099.20
55329;DHT22;41205;44.264;19.884;2022-08-19T14:22:55;743.10;2150.40
55329;DHT22;41205;44.264;19.884;2022-08-19T14:25:22;743.00;2252.80
55329;DHT22;41205;44.264;19.884;2022-08-19T14:27:48;742.80;2432.00
55329;DHT22;41205;44.264;19.884;2022-08-19T14:30:15;742.70;2432.00
55329;DHT22;41205;44.264;19.884;2022-08-19T14:32:41;742.60;2432.00
55329;DHT22;41205;44.264;19.884;2022-08-19T14:35:08;742.50;2432.00
55329;DHT22;41205;44.264;19.884;2022-08-19T14:37:34;742.50;2432.00
55329;DHT22;41205;44.264;19.884;2022-08-19T14:40:01;742.40;2432.00
55329;DHT22;41205;44.264;19.884;2022-08-19T14:42:26;742.60;2432.00
55329;DHT22;41205;44.264;19.884;2022-08-19T14:44:52;742.60;2432.00